Time;durP1;ratioP1;P1;durP2;ratioP2;P2;SDS_P1;SDS_P2;PMS_P1;PMS_P2;Temp;Humidity;BMP_temperature;BMP_pressure;BME280_temperature;BME280_humidity;BME280_pressure;Samples;Min_cycle;Max_cycle;Signal;HPM_P1;HPM_P2
2022/12/06 00:00:17;;;;;;;8.55;1.95;;;6.20;99.90;;;;;;4971060;28;20125;-61
2022/12/06 00:02:44;;;;;;;8.18;2.83;;;6.20;99.90;;;;;;4967787;28;20097;-60
2022/12/06 00:05:11;;;;;;;8.40;2.17;;;6.20;99.90;;;;;;4959474;28;20079;-61
2022/12/06 00:07:38;;;;;;;6.75;3.08;;;6.20;99.90;;;;;;4962382;28;20577;-60
2022/12/06 00:10:06;;;;;;;8.27;2.20;;;6.20;99.90;;;;;;4963262;28;20052;-60
2022/12/06 00:12:32;;;;;;;8.45;2.85;;;6.20;99.90;;;;;;4965855;28;20055;-61
2022/12/06 00:14:59;;;;;;;6.53;1.95;;;6.20;99.90;;;;;;4963441;28;20048;-61
2022/12/06 00:17:26;;;;;;;8.52;2.10;;;6.20;99.90;;;;;;4970107;28;20046;-61
2022/12/06 00:19:53;;;;;;;7.57;2.67;;;6.20;99.90;;;;;;4970445;28;20137;-61
2022/12/06 00:22:19;;;;;;;8.70;4.00;;;6.20;99.90;;;;;;4971697;28;20098;-61
2022/12/06 00:24:46;;;;;;;4.72;1.90;;;6.20;99.90;;;;;;4986616;28;20506;-61
2022/12/06 00:27:13;;;;;;;8.40;4.63;;;6.20;99.90;;;;;;4971253;28;20522;-61
2022/12/06 00:29:40;;;;;;;9.05;2.78;;;6.10;99.90;;;;;;4971620;28;20395;-60
2022/12/06 00:32:06;;;;;;;6.78;2.53;;;6.10;99.90;;;;;;4971651;28;20125;-60
2022/12/06 00:34:33;;;;;;;8.30;2.53;;;6.10;99.90;;;;;;4965801;28;20062;-60
2022/12/06 00:37:00;;;;;;;11.10;3.38;;;6.10;99.90;;;;;;4956762;28;20078;-61
2022/12/06 00:39:27;;;;;;;8.07;2.55;;;6.00;99.90;;;;;;4971473;28;20129;-60
2022/12/06 00:41:54;;;;;;;12.73;5.03;;;6.00;99.90;;;;;;4971801;28;20066;-60
2022/12/06 00:44:21;;;;;;;12.10;3.03;;;5.90;99.90;;;;;;4971452;28;20093;-60
2022/12/06 00:46:48;;;;;;;6.25;2.75;;;5.90;99.90;;;;;;4971300;28;20047;-60
2022/12/06 00:49:15;;;;;;;8.55;2.70;;;5.80;99.90;;;;;;4971047;28;20089;-60
2022/12/06 00:51:42;;;;;;;11.07;2.75;;;5.80;99.90;;;;;;4971628;28;20082;-62
2022/12/06 00:54:09;;;;;;;12.23;3.20;;;5.80;99.90;;;;;;4970736;28;20093;-61
2022/12/06 00:56:36;;;;;;;11.18;2.45;;;5.80;99.90;;;;;;4970724;28;20129;-61
2022/12/06 00:59:03;;;;;;;6.70;2.53;;;5.80;99.90;;;;;;4972111;28;20109;-60
2022/12/06 01:01:32;;;;;;;4.28;2.25;;;5.70;99.90;;;;;;4972511;28;20097;-60
2022/12/06 01:04:00;;;;;;;8.15;2.65;;;5.70;99.90;;;;;;4972430;28;20221;-59
2022/12/06 01:06:29;;;;;;;10.25;1.90;;;5.70;99.90;;;;;;4971682;28;20086;-59
2022/12/06 01:08:56;;;;;;;9.93;2.97;;;5.70;99.90;;;;;;4970114;28;20050;-60
2022/12/06 01:11:23;;;;;;;8.70;2.33;;;5.80;99.90;;;;;;4970375;28;20057;-60
2022/12/06 01:13:50;;;;;;;8.63;2.58;;;5.60;99.90;;;;;;4970090;28;20086;-61
2022/12/06 01:16:20;;;;;;;8.65;2.17;;;5.60;99.90;;;;;;4971125;28;20130;-60
2022/12/06 01:18:49;;;;;;;5.60;1.90;;;5.60;99.90;;;;;;4969115;28;20043;-60
2022/12/06 01:21:17;;;;;;;8.07;2.65;;;5.60;99.90;;;;;;4969862;28;20047;-60
2022/12/06 01:23:44;;;;;;;5.80;1.90;;;5.60;99.90;;;;;;4970688;28;20047;-59
2022/12/06 01:26:13;;;;;;;9.55;3.05;;;5.60;99.90;;;;;;4970799;28;20130;-60
2022/12/06 01:28:40;;;;;;;6.65;2.58;;;5.60;99.90;;;;;;4969952;28;20082;-60
2022/12/06 01:31:07;;;;;;;9.63;2.10;;;5.60;99.90;;;;;;4970559;28;20051;-60
2022/12/06 01:33:34;;;;;;;5.57;2.53;;;5.60;99.90;;;;;;4970766;28;20042;-60
2022/12/06 01:36:02;;;;;;;9.25;2.58;;;5.50;99.90;;;;;;4970747;28;20129;-60
2022/12/06 01:38:28;;;;;;;9.50;3.00;;;5.50;99.90;;;;;;4970823;28;20047;-60
2022/12/06 01:40:55;;;;;;;8.70;2.22;;;5.50;99.90;;;;;;4970403;28;20043;-59
2022/12/06 01:43:38;;;;;;;4.60;2.10;;;5.60;99.90;;;;;;4985354;28;20047;-60
2022/12/06 01:46:32;;;;;;;5.38;2.50;;;5.60;99.90;;;;;;4970314;28;20068;-60
2022/12/06 01:49:02;;;;;;;6.75;2.45;;;5.60;99.90;;;;;;4970461;28;20058;-60
2022/12/06 01:51:29;;;;;;;7.25;2.65;;;5.60;99.90;;;;;;4969224;28;20515;-60
2022/12/06 01:53:55;;;;;;;4.97;1.90;;;5.60;99.90;;;;;;4969583;28;20585;-60
2022/12/06 01:56:22;;;;;;;13.65;2.00;;;5.60;99.90;;;;;;4967199;28;20481;-60
2022/12/06 01:58:50;;;;;;;4.43;2.58;;;5.60;99.90;;;;;;4970641;28;20047;-60
2022/12/06 02:01:16;;;;;;;15.15;3.10;;;5.60;99.90;;;;;;4969123;28;20133;-60
2022/12/06 02:03:43;;;;;;;9.48;2.75;;;5.60;99.90;;;;;;4970267;28;20504;-60
2022/12/06 02:06:10;;;;;;;8.52;2.47;;;5.60;99.90;;;;;;4968887;28;20130;-61
2022/12/06 02:08:37;;;;;;;9.40;2.22;;;5.50;99.90;;;;;;4968806;28;20046;-60
2022/12/06 02:11:04;;;;;;;8.60;2.13;;;5.50;99.90;;;;;;4968829;28;20514;-60
2022/12/06 02:13:31;;;;;;;8.85;2.33;;;5.50;99.90;;;;;;4969364;28;20130;-60
2022/12/06 02:16:16;;;;;;;8.57;3.03;;;5.50;99.90;;;;;;4959365;28;20391;-60
2022/12/06 02:19:13;;;;;;;9.65;2.55;;;5.50;99.90;;;;;;4961792;28;20130;-60
2022/12/06 02:21:52;;;;;;;9.70;2.65;;;5.50;99.90;;;;;;4965055;28;20050;-60
2022/12/06 02:24:46;;;;;;;9.35;2.33;;;5.40;99.90;;;;;;4969814;28;20101;-60
2022/12/06 02:27:34;;;;;;;6.45;2.55;;;5.30;99.90;;;;;;4969746;28;20090;-60
2022/12/06 02:30:11;;;;;;;9.15;2.38;;;5.30;99.90;;;;;;4969698;28;20130;-60
2022/12/06 02:32:50;;;;;;;6.40;2.55;;;5.40;99.90;;;;;;4968724;28;20042;-61
2022/12/06 02:35:41;;;;;;;5.32;2.35;;;5.30;99.90;;;;;;4969844;28;20081;-60
2022/12/06 02:38:20;;;;;;;6.97;2.58;;;5.20;99.90;;;;;;4969556;28;20459;-60
2022/12/06 02:40:56;;;;;;;8.55;2.25;;;5.20;99.90;;;;;;4969934;28;20153;-61
2022/12/06 02:43:26;;;;;;;7.47;3.20;;;5.20;99.90;;;;;;4957436;28;20058;-60
2022/12/06 02:45:55;;;;;;;6.78;2.70;;;5.20;99.90;;;;;;4968546;28;20097;-60
2022/12/06 02:48:22;;;;;;;15.48;2.95;;;5.20;99.90;;;;;;4968183;28;20082;-60
2022/12/06 02:50:56;;;;;;;5.82;2.72;;;5.20;99.90;;;;;;4969036;28;20446;-61
2022/12/06 02:53:23;;;;;;;9.00;1.95;;;5.20;99.90;;;;;;4969403;28;20111;-60
2022/12/06 02:55:49;;;;;;;5.53;2.28;;;5.20;99.90;;;;;;4968816;28;20057;-61
2022/12/06 02:58:16;;;;;;;6.95;3.00;;;5.20;99.90;;;;;;4968210;28;20046;-61
2022/12/06 03:00:50;;;;;;;7.57;3.00;;;5.20;99.90;;;;;;4969638;28;20130;-60
2022/12/06 03:03:22;;;;;;;7.43;2.35;;;5.20;99.90;;;;;;4968962;28;20046;-61
2022/12/06 03:06:01;;;;;;;8.50;2.22;;;5.20;99.90;;;;;;4984760;28;20078;-61
2022/12/06 03:08:31;;;;;;;7.63;2.20;;;5.20;99.90;;;;;;4969394;28;20073;-60
2022/12/06 03:10:59;;;;;;;7.50;3.97;;;5.10;99.90;;;;;;4969677;28;20577;-60
2022/12/06 03:13:34;;;;;;;7.13;2.22;;;5.10;99.90;;;;;;4950895;28;20054;-62
2022/12/06 03:16:07;;;;;;;11.05;2.40;;;5.10;99.90;;;;;;4968553;28;20055;-61
2022/12/06 03:18:36;;;;;;;5.53;2.33;;;5.00;99.90;;;;;;4968192;28;20232;-60
2022/12/06 03:21:08;;;;;;;4.20;1.95;;;5.00;99.90;;;;;;4968451;28;20414;-61
2022/12/06 03:23:45;;;;;;;13.63;3.13;;;5.00;99.90;;;;;;4968179;28;20055;-61
2022/12/06 03:26:13;;;;;;;8.50;2.67;;;4.90;99.90;;;;;;4968367;28;20166;-61
2022/12/06 03:28:40;;;;;;;3.70;2.03;;;4.90;99.90;;;;;;4968219;28;20093;-61
2022/12/06 03:31:09;;;;;;;6.55;2.55;;;4.90;99.90;;;;;;4968146;28;20138;-61
2022/12/06 03:33:41;;;;;;;9.93;3.97;;;4.90;99.90;;;;;;4967885;28;20043;-61
2022/12/06 03:36:09;;;;;;;8.55;2.38;;;4.90;99.90;;;;;;4968187;28;20130;-60
2022/12/06 03:38:39;;;;;;;8.32;2.33;;;4.90;99.90;;;;;;4968355;28;20074;-59
2022/12/06 03:41:06;;;;;;;9.20;2.50;;;4.90;99.90;;;;;;4971731;28;20113;-59
2022/12/06 03:43:33;;;;;;;7.55;2.67;;;4.90;99.90;;;;;;4972554;28;20047;-59
2022/12/06 03:46:18;;;;;;;6.22;2.45;;;5.00;99.90;;;;;;4971358;28;20098;-58
2022/12/06 03:49:02;;;;;;;8.68;2.97;;;5.00;99.90;;;;;;4970811;28;20062;-59
2022/12/06 03:51:31;;;;;;;8.85;2.53;;;5.00;99.90;;;;;;4965228;28;20060;-59
2022/12/06 03:53:59;;;;;;;14.50;2.90;;;5.00;99.90;;;;;;4972169;28;20699;-60
2022/12/06 03:56:26;;;;;;;5.68;2.25;;;5.00;99.90;;;;;;4972548;28;20089;-60
2022/12/06 03:58:53;;;;;;;8.10;2.53;;;5.00;99.90;;;;;;4972157;28;20046;-60
2022/12/06 04:01:19;;;;;;;6.45;2.08;;;5.10;99.90;;;;;;4972586;28;20085;-60
2022/12/06 04:03:46;;;;;;;6.13;2.17;;;5.10;99.90;;;;;;4964630;28;20054;-60
2022/12/06 04:06:13;;;;;;;12.52;2.65;;;5.10;99.90;;;;;;4972376;28;20079;-60
2022/12/06 04:08:40;;;;;;;7.25;2.65;;;5.10;99.90;;;;;;4969218;28;20047;-60
2022/12/06 04:11:07;;;;;;;4.53;2.28;;;5.10;99.90;;;;;;4972226;28;20137;-61
2022/12/06 04:13:34;;;;;;;10.52;2.67;;;5.10;99.90;;;;;;4971826;28;20074;-60
2022/12/06 04:16:01;;;;;;;10.10;2.33;;;5.10;99.90;;;;;;4971721;28;20054;-61
2022/12/06 04:18:28;;;;;;;15.60;6.93;;;5.10;99.90;;;;;;4972309;28;20130;-61
2022/12/06 04:23:02;;;;;;;6.10;2.25;;;5.10;99.90;;;;;;4971878;28;20141;-61
2022/12/06 04:24:03;;;;;;;4.97;2.40;;;5.20;99.90;;;;;;4957824;28;20051;-61
2022/12/06 04:26:30;;;;;;;8.02;2.20;;;5.10;99.90;;;;;;4971978;28;20552;-61
2022/12/06 04:39:59;;;;;;;17.13;2.53;;;5.10;99.90;;;;;;4971711;28;20145;-61
2022/12/06 04:45:11;;;;;;;5.82;1.90;;;5.10;99.90;;;;;;4971725;28;20122;-60
2022/12/06 04:47:38;;;;;;;12.07;2.90;;;5.10;99.90;;;;;;4971567;28;20510;-61
2022/12/06 04:50:06;;;;;;;9.73;2.05;;;5.10;99.90;;;;;;4971659;28;20074;-60
2022/12/06 04:52:35;;;;;;;8.73;2.60;;;5.10;99.90;;;;;;4967535;28;20051;-59
2022/12/06 04:55:03;;;;;;;9.95;2.42;;;5.10;99.90;;;;;;4971680;28;20138;-60
2022/12/06 04:57:30;;;;;;;6.40;2.45;;;5.10;99.90;;;;;;4970910;28;20066;-63
2022/12/06 04:59:57;;;;;;;9.32;2.53;;;5.10;99.90;;;;;;4971210;28;20058;-60
2022/12/06 05:02:24;;;;;;;12.07;2.38;;;5.10;99.90;;;;;;4968144;28;20051;-60
2022/12/06 05:04:51;;;;;;;5.00;2.20;;;5.10;99.90;;;;;;4971311;28;20533;-59
2022/12/06 05:07:20;;;;;;;8.10;2.35;;;5.10;99.90;;;;;;4971195;28;20085;-60
2022/12/06 05:09:47;;;;;;;6.22;1.70;;;5.20;99.90;;;;;;4971041;28;20057;-60
2022/12/06 05:12:14;;;;;;;5.35;2.00;;;5.10;99.90;;;;;;4971304;28;20046;-60
2022/12/06 05:14:40;;;;;;;5.68;2.47;;;5.10;99.90;;;;;;4970754;28;20054;-60
2022/12/06 05:17:07;;;;;;;7.13;2.00;;;5.20;99.90;;;;;;4971074;28;20231;-60
2022/12/06 05:19:34;;;;;;;8.05;2.28;;;5.20;99.90;;;;;;4970974;28;20141;-60
2022/12/06 05:22:01;;;;;;;3.53;1.83;;;5.20;99.90;;;;;;4967764;28;20057;-60
2022/12/06 05:24:28;;;;;;;8.10;2.38;;;5.20;99.90;;;;;;4963699;28;20134;-60
2022/12/06 05:26:54;;;;;;;6.50;1.98;;;5.20;99.90;;;;;;4970827;28;20074;-60
2022/12/06 05:29:21;;;;;;;7.80;2.22;;;5.30;99.90;;;;;;4970636;28;20086;-60
2022/12/06 05:31:48;;;;;;;7.95;2.17;;;5.20;99.90;;;;;;4970657;28;20046;-60
2022/12/06 05:34:15;;;;;;;8.02;2.45;;;5.20;99.90;;;;;;4970683;28;20047;-60
2022/12/06 05:36:44;;;;;;;5.35;2.22;;;5.20;99.90;;;;;;4970559;28;20118;-60
2022/12/06 05:39:11;;;;;;;3.92;2.17;;;5.20;99.90;;;;;;4970603;28;20047;-60
2022/12/06 05:41:38;;;;;;;10.40;2.58;;;5.20;99.90;;;;;;4969788;28;20137;-60
2022/12/06 05:44:04;;;;;;;7.90;2.05;;;5.20;99.90;;;;;;4970014;28;20043;-60
2022/12/06 05:46:31;;;;;;;11.63;1.92;;;5.20;99.90;;;;;;4969490;28;20147;-60
2022/12/06 05:48:58;;;;;;;4.00;1.73;;;5.20;99.90;;;;;;4969948;28;20543;-60
2022/12/06 05:51:25;;;;;;;6.10;2.25;;;5.30;99.90;;;;;;4970468;28;20086;-60
2022/12/06 05:53:51;;;;;;;5.93;2.17;;;5.30;99.90;;;;;;4970065;28;20043;-60
2022/12/06 05:56:18;;;;;;;5.78;1.95;;;5.30;99.90;;;;;;4970436;28;20097;-60
2022/12/06 05:58:45;;;;;;;8.25;1.92;;;5.30;99.90;;;;;;4969922;28;20134;-60
2022/12/06 06:01:12;;;;;;;6.68;1.88;;;5.30;99.90;;;;;;4969972;28;20589;-60
2022/12/06 06:03:39;;;;;;;6.40;1.60;;;5.20;99.90;;;;;;4961123;28;20043;-60
2022/12/06 06:06:13;;;;;;;;;;;5.30;99.90;;;;;;4970794;28;20051;-59
2022/12/06 06:08:39;;;;;;;2.97;1.50;;;5.30;99.90;;;;;;4970474;28;20005;-60
2022/12/06 06:11:06;;;;;;;7.38;2.22;;;5.30;99.90;;;;;;4971576;28;20139;-60
2022/12/06 06:13:33;;;;;;;3.28;1.65;;;5.30;99.90;;;;;;4970609;28;20139;-60
2022/12/06 06:16:00;;;;;;;9.32;1.88;;;5.30;99.90;;;;;;4970785;28;20055;-60
2022/12/06 06:18:26;;;;;;;4.20;1.73;;;5.30;99.90;;;;;;4969775;28;20039;-60
2022/12/06 06:20:56;;;;;;;4.50;1.42;;;5.20;99.90;;;;;;4968252;28;20088;-61
2022/12/06 06:23:23;;;;;;;6.95;1.58;;;5.20;99.90;;;;;;4953790;28;20150;-59
2022/12/06 06:25:50;;;;;;;14.60;1.90;;;5.20;99.90;;;;;;4969781;28;20482;-60
2022/12/06 06:28:17;;;;;;;8.48;1.80;;;5.20;99.90;;;;;;4969767;28;20066;-61
2022/12/06 06:30:44;;;;;;;4.07;1.65;;;5.20;99.90;;;;;;4969528;28;20122;-61
2022/12/06 06:33:11;;;;;;;3.75;1.58;;;5.20;99.90;;;;;;4968574;28;20060;-61
2022/12/06 06:35:37;;;;;;;12.13;2.53;;;5.20;99.90;;;;;;4969103;28;20529;-64
2022/12/06 06:38:04;;;;;;;3.03;1.42;;;5.10;99.90;;;;;;4969600;28;20243;-61
2022/12/06 06:40:31;;;;;;;7.15;1.85;;;5.10;99.90;;;;;;4969249;28;20047;-61
2022/12/06 06:43:16;;;;;;;13.35;2.13;;;5.10;99.90;;;;;;4969423;28;20130;-61
2022/12/06 06:45:51;;;;;;;6.35;1.42;;;5.10;99.90;;;;;;4969009;28;20279;-59
2022/12/06 06:48:18;;;;;;;;;;;5.20;99.90;;;;;;4968823;28;20054;-60
2022/12/06 06:50:45;;;;;;;10.80;2.03;;;5.10;99.90;;;;;;4981145;28;20223;-60
2022/12/06 06:53:12;;;;;;;4.32;1.83;;;5.10;99.90;;;;;;4963571;28;20134;-60
2022/12/06 06:55:38;;;;;;;6.63;1.67;;;5.10;99.90;;;;;;4623438;28;10000236;-60
2022/12/06 06:58:05;;;;;;;7.82;2.38;;;5.10;99.90;;;;;;4966117;28;20067;-60
2022/12/06 07:00:32;;;;;;;12.65;1.92;;;5.10;99.90;;;;;;4949001;28;20186;-59
2022/12/06 07:02:59;;;;;;;9.05;2.28;;;5.10;99.90;;;;;;4966420;28;20126;-60
2022/12/06 07:05:26;;;;;;;13.77;4.93;;;5.10;99.90;;;;;;4966304;28;20081;-59
2022/12/06 07:07:53;;;;;;;4.10;1.80;;;5.00;99.90;;;;;;4966741;28;20054;-59
2022/12/06 07:10:20;;;;;;;4.80;1.80;;;5.00;99.90;;;;;;4965915;28;20507;-59
2022/12/06 07:12:50;;;;;;;6.35;2.05;;;4.60;99.90;;;;;;4965672;28;20057;-62
2022/12/06 07:15:17;;;;;;;5.03;1.85;;;4.90;99.90;;;;;;4965299;28;20042;-59
2022/12/06 07:17:44;;;;;;;14.63;2.58;;;4.80;99.90;;;;;;4970329;28;20068;-59
2022/12/06 07:20:11;;;;;;;5.72;2.03;;;4.80;99.90;;;;;;4969774;28;20146;-61
2022/12/06 07:22:38;;;;;;;6.88;1.90;;;4.80;99.90;;;;;;4969164;28;20137;-61
2022/12/06 07:25:05;;;;;;;6.80;1.70;;;4.70;99.90;;;;;;4969622;28;20043;-61
2022/12/06 07:27:35;;;;;;;8.35;2.05;;;4.70;99.90;;;;;;4984419;28;20051;-60
2022/12/06 07:30:06;;;;;;;5.32;1.60;;;4.70;99.90;;;;;;4969446;28;20058;-60
2022/12/06 07:32:34;;;;;;;7.15;2.42;;;4.70;99.90;;;;;;4969920;28;20055;-61
2022/12/06 07:35:02;;;;;;;6.60;2.10;;;4.60;99.90;;;;;;4970249;28;20051;-60
2022/12/06 07:37:29;;;;;;;8.15;2.30;;;4.60;99.90;;;;;;4967517;28;20051;-60
2022/12/06 07:39:56;;;;;;;6.75;3.00;;;4.60;99.90;;;;;;4968804;28;20082;-61
2022/12/06 07:45:10;;;;;;;11.50;3.28;;;4.60;99.90;;;;;;4964522;28;20088;-61
2022/12/06 07:47:39;;;;;;;7.35;2.20;;;4.60;99.90;;;;;;4966911;28;20074;-61
2022/12/06 07:50:08;;;;;;;7.22;3.00;;;4.50;99.90;;;;;;4969059;28;20494;-61
2022/12/06 07:52:41;;;;;;;4.13;2.00;;;4.50;99.90;;;;;;4967221;28;20054;-61
2022/12/06 07:55:09;;;;;;;6.30;2.72;;;4.50;99.90;;;;;;4967433;28;20074;-61
2022/12/06 07:57:39;;;;;;;9.27;4.68;;;4.50;99.90;;;;;;4967416;28;20062;-60
2022/12/06 08:00:10;;;;;;;5.97;2.00;;;4.50;99.90;;;;;;4968958;28;20058;-58
2022/12/06 08:02:37;;;;;;;11.73;2.50;;;4.50;99.90;;;;;;4967549;28;20089;-60
2022/12/06 08:05:04;;;;;;;5.90;2.65;;;4.60;99.90;;;;;;4969083;28;20130;-61
2022/12/06 08:07:31;;;;;;;12.35;2.92;;;4.40;99.90;;;;;;4968691;28;20422;-60
2022/12/06 08:09:58;;;;;;;6.80;3.30;;;4.40;99.90;;;;;;4968323;28;20059;-60
2022/12/06 08:12:27;;;;;;;13.40;2.72;;;4.30;99.90;;;;;;4967831;28;20493;-60
2022/12/06 08:14:54;;;;;;;8.00;2.88;;;4.40;99.90;;;;;;4967844;28;20058;-61
2022/12/06 08:17:25;;;;;;;8.38;2.45;;;4.30;99.90;;;;;;4968715;28;20089;-60
2022/12/06 08:19:52;;;;;;;4.30;2.30;;;4.30;99.90;;;;;;4968841;28;20053;-61
2022/12/06 08:22:19;;;;;;;6.18;2.47;;;4.40;99.90;;;;;;4967281;28;20134;-61
2022/12/06 08:24:46;;;;;;;9.00;2.20;;;4.30;99.90;;;;;;4968426;28;20047;-60
2022/12/06 08:27:12;;;;;;;6.18;2.00;;;4.40;99.90;;;;;;4967457;28;20046;-61
2022/12/06 08:29:39;;;;;;;8.05;2.60;;;4.40;99.90;;;;;;4968499;28;20051;-61
2022/12/06 08:32:06;;;;;;;18.35;2.70;;;4.50;99.90;;;;;;4968387;28;20433;-61
2022/12/06 08:34:33;;;;;;;12.85;2.70;;;4.50;99.90;;;;;;4968231;28;20086;-61
2022/12/06 08:37:00;;;;;;;6.60;2.58;;;4.60;99.90;;;;;;4968513;28;20138;-60
2022/12/06 08:39:29;;;;;;;11.07;3.22;;;4.60;99.90;;;;;;4967929;28;20502;-59
2022/12/06 08:41:58;;;;;;;6.68;2.40;;;4.50;99.90;;;;;;4968066;28;20055;-59
2022/12/06 08:44:26;;;;;;;15.95;4.18;;;4.60;99.90;;;;;;4968500;28;20544;-59
2022/12/06 08:46:53;;;;;;;6.57;1.92;;;4.60;99.90;;;;;;4967788;28;20058;-59
2022/12/06 08:49:21;;;;;;;11.93;3.78;;;4.60;99.90;;;;;;4967956;28;20137;-59
2022/12/06 08:51:47;;;;;;;14.73;2.30;;;4.60;99.90;;;;;;4963825;28;20174;-60
2022/12/06 08:54:16;;;;;;;5.70;2.25;;;4.60;99.90;;;;;;4963736;28;20039;-60
2022/12/06 08:56:43;;;;;;;8.43;2.38;;;4.60;99.90;;;;;;4962203;28;20163;-60
2022/12/06 08:59:09;;;;;;;6.82;2.03;;;4.60;99.90;;;;;;4968073;28;21291;-60
2022/12/06 09:01:36;;;;;;;9.23;2.55;;;4.70;99.90;;;;;;4963162;28;20133;-58
2022/12/06 09:04:05;;;;;;;8.20;3.28;;;4.70;99.90;;;;;;4967407;28;20157;-59
2022/12/06 09:06:32;;;;;;;10.07;2.72;;;4.60;99.90;;;;;;4967994;28;20134;-59
2022/12/06 09:08:59;;;;;;;8.27;3.00;;;4.60;99.90;;;;;;4967581;28;20039;-60
2022/12/06 09:11:26;;;;;;;6.05;2.38;;;4.60;99.90;;;;;;4967561;28;20070;-59
2022/12/06 09:13:52;;;;;;;6.53;2.38;;;4.70;99.90;;;;;;4967770;28;20417;-60
2022/12/06 09:16:20;;;;;;;15.00;3.70;;;4.70;99.90;;;;;;4964525;28;20086;-59
2022/12/06 09:18:47;;;;;;;4.43;2.08;;;4.70;99.90;;;;;;4967570;28;20490;-59
2022/12/06 09:21:16;;;;;;;11.27;2.33;;;4.70;99.90;;;;;;4967277;28;20698;-59
2022/12/06 09:23:43;;;;;;;6.10;2.63;;;4.70;99.90;;;;;;4967742;28;20602;-60
2022/12/06 09:26:10;;;;;;;17.38;3.13;;;4.70;99.90;;;;;;4966481;28;20133;-59
2022/12/06 09:28:38;;;;;;;9.85;2.25;;;4.80;99.90;;;;;;4966386;28;20097;-60
2022/12/06 09:31:05;;;;;;;5.47;2.55;;;4.80;99.90;;;;;;4964284;28;20104;-59
2022/12/06 09:33:33;;;;;;;6.75;2.08;;;4.80;99.90;;;;;;4967387;28;20055;-60
2022/12/06 09:36:01;;;;;;;11.07;2.85;;;4.80;99.90;;;;;;4967311;28;20042;-60
2022/12/06 09:38:28;;;;;;;9.35;2.42;;;4.80;99.90;;;;;;4965928;28;20454;-61
2022/12/06 09:41:08;;;;;;;9.55;3.50;;;4.90;99.90;;;;;;4964656;28;20541;-61
2022/12/06 09:43:41;;;;;;;8.07;2.55;;;4.90;99.90;;;;;;4965558;28;20067;-60
2022/12/06 09:46:14;;;;;;;8.13;2.50;;;5.00;99.90;;;;;;4967189;28;20352;-60
2022/12/06 09:48:48;;;;;;;4.70;2.53;;;5.00;99.90;;;;;;4966444;28;20502;-61
2022/12/06 09:51:40;;;;;;;8.57;2.58;;;5.00;99.90;;;;;;4966024;28;20550;-60
2022/12/06 09:54:32;;;;;;;7.45;2.58;;;5.00;99.90;;;;;;4967117;28;20153;-60
2022/12/06 09:57:26;;;;;;;8.35;2.40;;;5.10;99.90;;;;;;4965306;28;20503;-59
2022/12/06 10:00:01;;;;;;;12.15;2.33;;;5.20;99.90;;;;;;4966015;28;20054;-61
2022/12/06 10:02:53;;;;;;;6.57;2.15;;;5.20;99.90;;;;;;4964928;28;20050;-60
2022/12/06 10:05:54;;;;;;;9.77;2.85;;;5.20;99.90;;;;;;4967445;28;20149;-60
2022/12/06 10:08:29;;;;;;;9.48;2.75;;;5.30;99.90;;;;;;4958522;28;20141;-60
2022/12/06 10:11:03;;;;;;;5.60;2.40;;;5.30;99.90;;;;;;4950989;28;20141;-60
2022/12/06 10:13:41;;;;;;;4.47;2.13;;;5.30;99.90;;;;;;4964162;28;20226;-59
2022/12/06 10:16:16;;;;;;;7.60;2.33;;;5.30;99.90;;;;;;4961099;28;20457;-60
2022/12/06 10:19:02;;;;;;;8.60;2.25;;;5.30;99.90;;;;;;4965300;28;20502;-61
2022/12/06 10:21:49;;;;;;;3.67;2.25;;;5.40;99.90;;;;;;4965648;28;20141;-61
2022/12/06 10:24:30;;;;;;;6.13;2.53;;;5.40;99.90;;;;;;4957585;28;20113;-61
2022/12/06 10:27:02;;;;;;;18.30;2.53;;;5.50;99.90;;;;;;4958277;28;20050;-60
2022/12/06 10:29:57;;;;;;;5.20;2.13;;;5.50;99.90;;;;;;4964304;28;20092;-60
2022/12/06 10:32:49;;;;;;;9.32;2.33;;;5.50;99.90;;;;;;4961016;28;20142;-61
2022/12/06 10:35:31;;;;;;;5.75;1.92;;;5.50;99.90;;;;;;4962464;28;20047;-61
2022/12/06 10:38:16;;;;;;;6.40;2.03;;;5.60;99.90;;;;;;4964065;28;20310;-60
2022/12/06 10:40:58;;;;;;;4.82;1.55;;;5.60;99.90;;;;;;4965470;28;20055;-61
2022/12/06 10:43:33;;;;;;;19.15;2.65;;;5.70;99.90;;;;;;4965526;28;20422;-60
2022/12/06 10:49:20;;;;;;;6.38;1.95;;;5.70;99.90;;;;;;4964203;28;20054;-60
2022/12/06 10:51:56;;;;;;;6.93;2.10;;;5.70;99.90;;;;;;4967315;28;20114;-59
2022/12/06 10:54:42;;;;;;;8.45;2.58;;;5.70;99.90;;;;;;4968974;28;20090;-59
2022/12/06 10:57:40;;;;;;;9.30;2.33;;;5.70;99.90;;;;;;4968441;28;20117;-60
2022/12/06 11:00:17;;;;;;;6.05;2.03;;;5.70;99.90;;;;;;4969877;28;20047;-60
2022/12/06 11:02:45;;;;;;;6.88;1.90;;;5.80;99.90;;;;;;4954304;28;20065;-61
2022/12/06 11:05:30;;;;;;;4.30;1.55;;;5.80;99.90;;;;;;4969844;28;20414;-60
2022/12/06 11:08:10;;;;;;;5.90;1.83;;;5.80;99.90;;;;;;4967866;28;20090;-61
2022/12/06 11:10:37;;;;;;;2.85;1.20;;;5.80;99.90;;;;;;4957748;28;20122;-60
2022/12/06 11:13:39;;;;;;;7.28;1.88;;;5.90;99.90;;;;;;4968089;28;20042;-59
2022/12/06 11:16:33;;;;;;;7.75;1.50;;;5.80;99.90;;;;;;4957905;28;20142;-59
2022/12/06 11:19:38;;;;;;;4.25;1.65;;;5.90;99.90;;;;;;4969535;28;20047;-59
2022/12/06 11:22:11;;;;;;;8.45;2.10;;;5.90;99.90;;;;;;4970076;28;20354;-59
2022/12/06 11:24:43;;;;;;;8.40;2.30;;;5.90;99.90;;;;;;4968231;28;20166;-59
2022/12/06 11:27:21;;;;;;;6.18;1.70;;;5.90;99.90;;;;;;4968035;28;20054;-59
2022/12/06 11:29:48;;;;;;;6.85;1.60;;;6.00;99.90;;;;;;4966276;28;20082;-59
2022/12/06 11:32:15;;;;;;;13.15;2.50;;;6.00;99.90;;;;;;4955048;28;20138;-59
2022/12/06 11:34:52;;;;;;;6.68;2.47;;;6.00;99.90;;;;;;4959292;28;20572;-59
2022/12/06 11:37:21;;;;;;;3.63;1.65;;;6.00;99.90;;;;;;4967384;28;20126;-59
2022/12/06 11:39:49;;;;;;;2.50;1.60;;;6.00;99.90;;;;;;4967390;28;20051;-58
2022/12/06 11:42:22;;;;;;;5.80;1.65;;;6.00;99.90;;;;;;4965804;28;20096;-59
2022/12/06 11:44:54;;;;;;;7.63;1.83;;;6.10;99.90;;;;;;4971280;28;20130;-57
2022/12/06 11:47:21;;;;;;;3.58;1.50;;;6.10;99.90;;;;;;4970825;28;20070;-58
2022/12/06 11:49:48;;;;;;;6.15;1.60;;;6.10;99.90;;;;;;4970483;28;20125;-58
2022/12/06 11:52:19;;;;;;;7.75;1.60;;;6.10;99.90;;;;;;4954848;28;20059;-59
2022/12/06 11:54:57;;;;;;;7.65;2.63;;;6.10;99.90;;;;;;4965704;28;20134;-59
2022/12/06 11:57:28;;;;;;;2.58;1.25;;;6.20;99.90;;;;;;4970597;28;20066;-60
2022/12/06 12:00:13;;;;;;;6.53;1.70;;;6.20;99.90;;;;;;4970647;28;20054;-58
2022/12/06 12:02:41;;;;;;;4.60;1.75;;;6.20;99.90;;;;;;4971074;28;20502;-59
2022/12/06 12:05:34;;;;;;;6.35;1.40;;;6.20;99.90;;;;;;4954204;28;20039;-59
2022/12/06 12:08:17;;;;;;;2.67;1.50;;;6.20;99.90;;;;;;4971400;28;20090;-60
2022/12/06 12:10:57;;;;;;;4.63;1.37;;;6.30;99.90;;;;;;4969655;28;20198;-59
2022/12/06 12:16:45;;;;;;;6.15;1.92;;;6.30;99.90;;;;;;4969920;28;20093;-60
2022/12/06 12:19:31;;;;;;;5.20;1.95;;;6.30;99.90;;;;;;4943264;28;20503;-58
2022/12/06 12:21:58;;;;;;;14.63;1.95;;;6.30;99.90;;;;;;4962841;28;20094;-59
2022/12/06 12:24:37;;;;;;;9.63;2.30;;;6.40;99.90;;;;;;4970455;28;20086;-57
2022/12/06 12:27:38;;;;;;;3.20;1.85;;;6.40;99.90;;;;;;4971257;28;20078;-59
2022/12/06 12:30:20;;;;;;;7.85;2.15;;;6.50;99.90;;;;;;4971360;28;20105;-58
2022/12/06 12:32:48;;;;;;;11.77;2.70;;;6.60;99.90;;;;;;4970446;28;20046;-59
2022/12/06 12:35:21;;;;;;;8.48;3.10;;;6.60;99.90;;;;;;4969760;28;20074;-59
2022/12/06 12:37:50;;;;;;;5.10;2.20;;;6.60;99.90;;;;;;4970630;28;20061;-59
2022/12/06 12:40:32;;;;;;;11.02;3.42;;;6.70;99.90;;;;;;4970497;28;20074;-59
2022/12/06 12:43:04;;;;;;;4.53;1.85;;;6.60;99.90;;;;;;4968950;28;20097;-58
2022/12/06 12:45:31;;;;;;;7.00;2.25;;;6.70;99.90;;;;;;4969677;28;20078;-60
2022/12/06 12:48:02;;;;;;;11.57;2.22;;;6.70;99.90;;;;;;4953346;28;20498;-59
2022/12/06 12:50:30;;;;;;;6.32;1.83;;;6.70;99.90;;;;;;4971116;28;20082;-59
2022/12/06 12:52:57;;;;;;;4.82;1.90;;;6.70;99.90;;;;;;4967523;28;20130;-60
2022/12/06 12:55:27;;;;;;;6.43;1.95;;;6.70;99.90;;;;;;4952061;28;20059;-58
2022/12/06 12:57:56;;;;;;;5.40;1.83;;;6.70;99.90;;;;;;4965532;28;20093;-59
2022/12/06 13:00:36;;;;;;;8.10;1.88;;;6.80;99.90;;;;;;4969540;28;20134;-58
2022/12/06 13:03:05;;;;;;;3.67;1.83;;;6.80;99.90;;;;;;4969021;28;20154;-59
2022/12/06 13:05:52;;;;;;;5.70;1.60;;;6.70;99.90;;;;;;4966474;28;20047;-59
2022/12/06 13:08:25;;;;;;;7.60;2.40;;;6.70;99.90;;;;;;4968905;28;20476;-60
2022/12/06 13:10:54;;;;;;;7.07;1.90;;;6.70;99.90;;;;;;4970899;28;20069;-59
2022/12/06 13:13:31;;;;;;;2.80;1.30;;;6.70;99.90;;;;;;4967824;28;20079;-59
2022/12/06 13:15:58;;;;;;;7.97;1.85;;;6.80;99.90;;;;;;4969418;28;20050;-59
2022/12/06 13:18:25;;;;;;;7.28;2.55;;;6.70;99.90;;;;;;4968428;28;20057;-60
2022/12/06 13:20:55;;;;;;;2.40;1.15;;;6.80;99.90;;;;;;4967075;28;20049;-58
2022/12/06 13:23:26;;;;;;;1.67;1.10;;;6.70;99.90;;;;;;4968525;28;20775;-58
2022/12/06 13:26:03;;;;;;;4.10;1.50;;;6.80;99.90;;;;;;4969237;28;20046;-57
2022/12/06 13:28:34;;;;;;;4.90;1.92;;;6.80;99.90;;;;;;4969062;28;20101;-58
2022/12/06 13:31:04;;;;;;;3.78;1.60;;;6.80;99.90;;;;;;4968963;28;20050;-58
2022/12/06 13:33:31;;;;;;;6.05;1.80;;;6.80;99.90;;;;;;4623675;28;10000205;-59
2022/12/06 13:36:06;;;;;;;7.35;1.63;;;6.80;99.90;;;;;;4966037;28;20131;-60
2022/12/06 13:38:34;;;;;;;3.08;1.33;;;6.90;99.90;;;;;;4966298;28;20157;-59